Time;durP1;ratioP1;P1;durP2;ratioP2;P2;SDS_P1;SDS_P2;PMS_P1;PMS_P2;Temp;Humidity;BMP_temperature;BMP_pressure;BME280_temperature;BME280_humidity;BME280_pressure;Samples;Min_cycle;Max_cycle;Signal;HPM_P1;HPM_P2
2023/09/09 00:00:35;;;;;;;22.63;17.75;;;;;;;21.53;100.00;-18605.50;5027031;28;20069;-79
2023/09/09 00:03:01;;;;;;;21.38;16.00;;;;;;;21.56;100.00;-18606.31;5024693;28;20037;-78
2023/09/09 00:05:29;;;;;;;22.88;17.02;;;;;;;21.46;100.00;-18603.72;5011768;28;20733;-79
2023/09/09 00:07:54;;;;;;;24.23;17.30;;;;;;;21.37;100.00;-18601.41;5027933;28;20025;-79
2023/09/09 00:10:20;;;;;;;20.65;16.48;;;;;;;21.29;100.00;-18599.25;5027088;28;20041;-79
2023/09/09 00:12:45;;;;;;;20.33;16.50;;;;;;;21.26;100.00;-18598.44;5026975;28;20810;-79
2023/09/09 00:15:11;;;;;;;20.65;16.02;;;;;;;21.30;100.00;-18599.53;5025901;28;20440;-79
2023/09/09 00:17:36;;;;;;;23.13;17.00;;;;;;;21.21;100.00;-18596.94;5028950;28;20033;-79
2023/09/09 00:20:05;;;;;;;25.35;18.75;;;;;;;21.28;100.00;-18598.84;5030040;28;20475;-79
2023/09/09 00:22:30;;;;;;;25.30;17.48;;;;;;;21.18;100.00;-18596.38;5031171;28;20115;-78
2023/09/09 00:24:55;;;;;;;21.55;17.15;;;;;;;21.24;100.00;-18597.75;5016904;28;20579;-79
2023/09/09 00:27:21;;;;;;;23.25;17.27;;;;;;;21.27;100.00;-18598.69;5029744;28;20041;-78
2023/09/09 00:29:46;;;;;;;22.23;17.08;;;;;;;21.24;100.00;-18597.75;5033298;28;20038;-80
2023/09/09 00:32:11;;;;;;;22.95;17.23;;;;;;;21.17;100.00;-18596.13;5033719;28;20029;-80
2023/09/09 00:34:37;;;;;;;25.95;18.60;;;;;;;21.12;100.00;-18594.75;5034925;28;20038;-78
2023/09/09 00:37:03;;;;;;;23.45;17.33;;;;;;;21.15;100.00;-18595.56;5017954;28;20471;-79
2023/09/09 00:39:28;;;;;;;24.05;17.25;;;;;;;21.18;100.00;-18596.25;5014114;28;20519;-78
2023/09/09 00:41:54;;;;;;;24.20;18.08;;;;;;;21.16;100.00;-18595.72;5032502;28;20041;-79
2023/09/09 00:44:19;;;;;;;32.53;18.27;;;;;;;21.23;100.00;-18597.63;5014502;28;20029;-80
2023/09/09 00:46:45;;;;;;;24.35;17.50;;;;;;;21.19;100.00;-18596.53;5033956;28;20048;-79
2023/09/09 00:49:10;;;;;;;23.05;17.83;;;;;;;21.00;100.00;-18591.50;5031866;28;20044;-78
2023/09/09 00:51:39;;;;;;;24.67;18.63;;;;;;;21.04;100.00;-18592.59;5014648;28;20041;-79
2023/09/09 00:54:04;;;;;;;26.05;18.83;;;;;;;21.12;100.00;-18594.63;5021060;28;20133;-78
2023/09/09 00:56:33;;;;;;;24.60;18.40;;;;;;;21.21;100.00;-18597.06;5030352;28;20057;-80
2023/09/09 00:58:58;;;;;;;22.88;17.17;;;;;;;21.09;100.00;-18593.94;5019800;28;20245;-80
2023/09/09 01:01:24;;;;;;;25.42;17.70;;;;;;;21.08;100.00;-18593.66;5019939;28;20033;-78
2023/09/09 01:03:53;;;;;;;25.33;17.70;;;;;;;20.82;100.00;-18586.72;5029956;28;20046;-78
2023/09/09 01:06:20;;;;;;;21.33;17.90;;;;;;;20.90;100.00;-18588.78;5032390;28;20045;-77
2023/09/09 01:08:46;;;;;;;24.17;19.00;;;;;;;20.94;100.00;-18589.88;5034701;28;20503;-79
2023/09/09 01:11:11;;;;;;;26.55;19.65;;;;;;;20.92;100.00;-18589.47;5033719;28;20033;-78
2023/09/09 01:13:37;;;;;;;23.60;18.17;;;;;;;20.87;100.00;-18588.09;5033113;28;20044;-77
2023/09/09 01:16:02;;;;;;;23.05;17.52;;;;;;;20.92;100.00;-18589.47;5034031;28;20068;-78
2023/09/09 01:18:28;;;;;;;25.25;19.38;;;;;;;21.05;100.00;-18592.72;5030915;28;20041;-78
2023/09/09 01:21:24;;;;;;;25.35;18.50;;;;;;;21.06;100.00;-18593.00;5034123;28;20041;-78
2023/09/09 01:23:49;;;;;;;25.20;18.25;;;;;;;21.06;100.00;-18593.00;4995417;28;20088;-79
2023/09/09 01:26:15;;;;;;;25.27;18.27;;;;;;;20.86;100.00;-18587.81;5011803;28;20490;-78
2023/09/09 01:28:41;;;;;;;23.67;17.42;;;;;;;20.93;100.00;-18589.72;5024223;28;20064;-78
2023/09/09 01:31:08;;;;;;;23.25;17.30;;;;;;;20.84;100.00;-18587.28;5025111;28;20345;-77
2023/09/09 01:33:33;;;;;;;23.70;17.55;;;;;;;20.69;100.00;-18583.34;5027831;28;20041;-77
2023/09/09 01:35:58;;;;;;;23.38;18.10;;;;;;;20.70;100.00;-18583.47;5019083;28;20036;-79
2023/09/09 01:38:24;;;;;;;24.42;18.02;;;;;;;20.60;100.00;-18580.88;5030200;28;20044;-78
2023/09/09 01:40:49;;;;;;;26.38;18.63;;;;;;;20.63;100.00;-18581.56;5030689;28;20041;-78
2023/09/09 01:43:14;;;;;;;25.67;19.23;;;;;;;20.58;100.00;-18580.34;5029195;28;20129;-78
2023/09/09 01:45:40;;;;;;;23.27;18.52;;;;;;;20.65;100.00;-18582.25;5028353;28;20148;-78
2023/09/09 01:48:05;;;;;;;22.40;18.15;;;;;;;20.57;100.00;-18579.94;5026217;28;20048;-77
2023/09/09 01:50:31;;;;;;;24.70;18.73;;;;;;;20.58;100.00;-18580.34;5028304;28;20571;-78
2023/09/09 01:52:57;;;;;;;24.00;18.27;;;;;;;20.57;100.00;-18580.06;5011856;28;20043;-77
2023/09/09 01:55:23;;;;;;;24.30;18.60;;;;;;;20.57;100.00;-18580.06;5009566;28;20033;-76
2023/09/09 01:57:48;;;;;;;22.35;16.73;;;;;;;20.62;100.00;-18581.28;5029563;28;20064;-77
2023/09/09 02:00:14;;;;;;;24.00;18.20;;;;;;;20.58;100.00;-18580.22;5029295;28;20069;-76
2023/09/09 02:02:39;;;;;;;24.85;18.35;;;;;;;20.56;100.00;-18579.66;5029879;28;20051;-76
2023/09/09 02:05:05;;;;;;;28.50;18.83;;;;;;;20.54;100.00;-18579.13;5013607;28;20038;-77
2023/09/09 02:07:30;;;;;;;23.17;18.65;;;;;;;20.48;100.00;-18577.75;5017619;28;20166;-75
2023/09/09 02:09:56;;;;;;;25.17;18.83;;;;;;;20.40;100.00;-18575.44;5031532;28;20061;-78
2023/09/09 02:12:21;;;;;;;21.63;17.10;;;;;;;20.39;100.00;-18575.16;5030953;28;20057;-78
2023/09/09 02:14:46;;;;;;;25.52;19.30;;;;;;;20.36;100.00;-18574.34;5032541;28;20087;-77
2023/09/09 02:17:12;;;;;;;27.50;19.25;;;;;;;20.49;100.00;-18578.03;5036892;28;20041;-77
2023/09/09 02:19:38;;;;;;;26.00;19.48;;;;;;;20.53;100.00;-18578.97;5030466;28;20045;-78
2023/09/09 02:22:04;;;;;;;26.63;19.35;;;;;;;20.50;100.00;-18578.28;5010856;28;20033;-77
2023/09/09 02:24:29;;;;;;;27.45;20.02;;;;;;;20.54;100.00;-18579.25;5024605;28;20042;-77
2023/09/09 02:26:55;;;;;;;26.10;18.35;;;;;;;20.53;100.00;-18578.84;5029841;28;20136;-78
2023/09/09 02:29:20;;;;;;;27.38;19.50;;;;;;;20.58;100.00;-18580.34;5025835;28;20065;-78
2023/09/09 02:31:46;;;;;;;24.20;18.40;;;;;;;20.45;100.00;-18576.94;5025097;28;20107;-78
2023/09/09 02:34:11;;;;;;;25.90;19.27;;;;;;;20.37;100.00;-18574.75;5009517;28;20099;-77
2023/09/09 02:36:36;;;;;;;26.45;19.15;;;;;;;20.28;100.00;-18572.44;5024145;28;20048;-79
2023/09/09 02:39:02;;;;;;;25.55;18.52;;;;;;;20.22;100.00;-18570.81;5024358;28;20553;-78
2023/09/09 02:41:29;;;;;;;27.83;19.65;;;;;;;20.16;100.00;-18569.03;5026027;28;20049;-78
2023/09/09 02:43:54;;;;;;;26.48;20.05;;;;;;;20.12;100.00;-18568.09;5008246;28;20037;-77
2023/09/09 02:46:21;;;;;;;25.98;19.73;;;;;;;20.13;100.00;-18568.22;5010434;28;20883;-77
2023/09/09 02:48:46;;;;;;;24.52;18.92;;;;;;;20.04;100.00;-18566.03;5025919;28;20033;-78
2023/09/09 02:51:11;;;;;;;26.65;18.45;;;;;;;20.03;100.00;-18565.78;5026423;28;20064;-77
2023/09/09 02:53:37;;;;;;;26.17;18.20;;;;;;;19.98;100.00;-18564.28;5026325;28;20045;-77
2023/09/09 02:56:02;;;;;;;23.65;17.77;;;;;;;20.02;100.00;-18565.50;5027642;28;20366;-78
2023/09/09 02:58:27;;;;;;;25.00;18.55;;;;;;;19.96;100.00;-18563.88;5024919;28;20497;-77
2023/09/09 03:00:53;;;;;;;23.40;17.98;;;;;;;19.98;100.00;-18564.41;5027076;28;20056;-78
2023/09/09 03:03:20;;;;;;;26.17;18.80;;;;;;;19.93;100.00;-18563.06;5001760;28;20049;-77
2023/09/09 03:05:45;;;;;;;25.33;18.83;;;;;;;19.84;100.00;-18560.59;5023288;28;20387;-78
2023/09/09 03:08:11;;;;;;;26.65;19.77;;;;;;;19.83;100.00;-18560.34;5009273;28;20047;-77
2023/09/09 03:10:37;;;;;;;26.27;19.67;;;;;;;19.83;100.00;-18560.47;5019012;28;20091;-77
2023/09/09 03:13:02;;;;;;;24.98;19.15;;;;;;;19.77;100.00;-18558.69;5025568;28;20045;-77
2023/09/09 03:15:28;;;;;;;27.92;20.02;;;;;;;19.79;100.00;-18559.38;5026640;28;20041;-77
2023/09/09 03:17:53;;;;;;;25.50;18.73;;;;;;;19.84;100.00;-18560.59;5026849;28;20100;-77
2023/09/09 03:20:18;;;;;;;24.88;18.48;;;;;;;19.82;100.00;-18560.06;5026311;28;20087;-75
2023/09/09 03:22:44;;;;;;;25.02;18.90;;;;;;;19.75;100.00;-18558.16;5024818;28;20053;-77
2023/09/09 03:25:09;;;;;;;26.63;19.85;;;;;;;19.73;100.00;-18557.59;5006045;28;20073;-77
2023/09/09 03:27:34;;;;;;;23.17;17.85;;;;;;;19.83;100.00;-18560.34;5024094;28;20049;-77
2023/09/09 03:30:00;;;;;;;23.83;18.48;;;;;;;19.73;100.00;-18557.59;5007919;28;20678;-77
2023/09/09 03:32:26;;;;;;;26.98;19.00;;;;;;;19.77;100.00;-18558.69;5025905;28;20061;-77
2023/09/09 03:34:52;;;;;;;23.85;18.52;;;;;;;19.69;100.00;-18556.53;5018997;28;20033;-77
2023/09/09 03:37:18;;;;;;;22.40;18.02;;;;;;;19.78;100.00;-18558.97;5008592;28;20041;-78
2023/09/09 03:39:43;;;;;;;24.17;17.92;;;;;;;19.89;100.00;-18561.81;5027154;28;20064;-77
2023/09/09 03:42:08;;;;;;;24.30;18.42;;;;;;;19.84;100.00;-18560.59;5019558;28;20057;-77
2023/09/09 03:44:34;;;;;;;26.85;17.80;;;;;;;19.84;100.00;-18560.59;5007451;28;20038;-78
2023/09/09 03:46:59;;;;;;;23.15;18.27;;;;;;;19.81;100.00;-18559.91;5026279;28;20064;-77
2023/09/09 03:49:25;;;;;;;23.13;17.10;;;;;;;19.81;100.00;-18559.78;5025811;28;20042;-77
2023/09/09 03:51:51;;;;;;;25.63;18.08;;;;;;;19.83;100.00;-18560.34;5026231;28;20046;-77
2023/09/09 03:54:16;;;;;;;23.13;18.02;;;;;;;19.78;100.00;-18558.97;5006876;28;20543;-77
2023/09/09 03:56:42;;;;;;;25.52;18.85;;;;;;;19.88;100.00;-18561.56;5010320;28;20103;-77
2023/09/09 03:59:07;;;;;;;26.63;19.50;;;;;;;19.82;100.00;-18560.06;5027510;28;20047;-78
2023/09/09 04:01:33;;;;;;;25.15;18.85;;;;;;;19.83;100.00;-18560.34;5023430;28;20622;-77
2023/09/09 04:03:58;;;;;;;26.90;18.83;;;;;;;19.85;100.00;-18560.88;5029922;28;20148;-77
2023/09/09 04:06:24;;;;;;;27.92;18.90;;;;;;;19.87;100.00;-18561.41;5029707;28;20137;-76
2023/09/09 04:08:55;;;;;;;28.20;19.27;;;;;;;19.90;100.00;-18562.22;5030241;28;20075;-77
2023/09/09 04:11:20;;;;;;;25.00;18.48;;;;;;;19.78;100.00;-18558.97;5029933;28;20046;-76
2023/09/09 04:13:46;;;;;;;24.17;18.85;;;;;;;19.69;100.00;-18556.66;5016314;28;20045;-77
2023/09/09 04:16:11;;;;;;;24.95;18.58;;;;;;;19.68;100.00;-18556.25;5029364;28;20045;-77
2023/09/09 04:18:36;;;;;;;26.88;19.70;;;;;;;19.63;100.00;-18555.00;5029459;28;20041;-78
2023/09/09 04:21:02;;;;;;;22.90;17.98;;;;;;;19.64;100.00;-18555.28;5030415;28;20443;-78
2023/09/09 04:23:27;;;;;;;26.98;19.05;;;;;;;19.68;100.00;-18556.25;5028203;28;20444;-77
2023/09/09 04:25:53;;;;;;;24.25;18.80;;;;;;;19.67;100.00;-18555.97;5011553;28;20037;-77
2023/09/09 04:28:18;;;;;;;24.30;18.30;;;;;;;19.67;100.00;-18555.97;5028463;28;20037;-78
2023/09/09 04:30:45;;;;;;;26.02;18.40;;;;;;;19.57;100.00;-18553.50;5029318;28;20065;-76
2023/09/09 04:33:11;;;;;;;23.92;18.50;;;;;;;19.49;100.00;-18551.34;5026605;28;20095;-77
2023/09/09 04:35:42;;;;;;;26.63;18.70;;;;;;;19.49;100.00;-18551.34;5029711;28;20045;-77
2023/09/09 04:38:08;;;;;;;26.13;19.70;;;;;;;19.51;100.00;-18551.75;5030916;28;20069;-78
2023/09/09 04:40:34;;;;;;;25.50;19.40;;;;;;;19.49;100.00;-18551.34;5030820;28;20061;-77
2023/09/09 04:42:59;;;;;;;24.67;18.15;;;;;;;19.45;100.00;-18550.25;5009767;28;20049;-77
2023/09/09 04:45:25;;;;;;;26.08;18.90;;;;;;;19.44;100.00;-18549.84;5032559;28;20442;-77
2023/09/09 04:47:51;;;;;;;26.73;19.00;;;;;;;19.46;100.00;-18550.53;5032159;28;20061;-77
2023/09/09 04:50:20;;;;;;;28.02;19.00;;;;;;;19.37;100.00;-18548.06;5028578;28;20495;-78
2023/09/09 04:52:47;;;;;;;28.35;19.85;;;;;;;19.36;100.00;-18547.94;5002230;28;20133;-76
2023/09/09 04:55:13;;;;;;;25.98;19.17;;;;;;;19.25;100.00;-18544.94;5029474;28;20489;-77
2023/09/09 04:57:38;;;;;;;27.50;19.67;;;;;;;19.31;100.00;-18546.56;5027601;28;20056;-76
2023/09/09 05:00:07;;;;;;;26.52;20.15;;;;;;;19.29;100.00;-18545.88;5027515;28;20147;-77
2023/09/09 05:02:33;;;;;;;28.47;20.80;;;;;;;19.33;100.00;-18547.13;5025319;28;20057;-77
2023/09/09 05:04:59;;;;;;;27.90;20.27;;;;;;;19.26;100.00;-18545.06;5030180;28;20033;-77
2023/09/09 05:07:24;;;;;;;26.98;20.50;;;;;;;19.63;100.00;-18554.88;5028451;28;20041;-77
2023/09/09 05:09:50;;;;;;;26.45;19.52;;;;;;;19.64;100.00;-18555.16;5029588;28;20041;-77
2023/09/09 05:12:15;;;;;;;25.80;19.67;;;;;;;19.69;100.00;-18556.53;5028936;28;20141;-77
2023/09/09 05:14:40;;;;;;;30.02;20.40;;;;;;;19.53;100.00;-18552.44;5029498;28;20099;-77
2023/09/09 05:17:06;;;;;;;29.38;20.27;;;;;;;19.58;100.00;-18553.78;5029249;28;20041;-77
2023/09/09 05:19:31;;;;;;;27.63;19.50;;;;;;;19.61;100.00;-18554.47;5028153;28;20045;-78
2023/09/09 05:21:57;;;;;;;27.70;20.35;;;;;;;19.50;100.00;-18551.47;5007939;28;20070;-76
2023/09/09 05:24:22;;;;;;;27.38;19.65;;;;;;;19.36;100.00;-18547.94;5025289;28;20110;-76
2023/09/09 05:26:47;;;;;;;27.00;20.23;;;;;;;19.65;100.00;-18555.56;5029043;28;20103;-76
2023/09/09 05:29:13;;;;;;;32.42;20.65;;;;;;;19.69;100.00;-18556.53;5028346;28;20049;-76
2023/09/09 05:31:38;;;;;;;28.63;20.77;;;;;;;19.67;100.00;-18555.97;5025892;28;20053;-77
2023/09/09 05:34:03;;;;;;;28.35;19.90;;;;;;;19.61;100.00;-18554.59;5023211;28;20205;-77
2023/09/09 05:36:29;;;;;;;24.98;19.52;;;;;;;19.55;100.00;-18552.97;5029627;28;20061;-78
2023/09/09 05:38:59;;;;;;;29.65;21.70;;;;;;;19.54;100.00;-18552.69;5031940;28;20767;-78
2023/09/09 05:41:27;;;;;;;29.13;20.45;;;;;;;19.59;100.00;-18554.06;5027136;28;20447;-78
2023/09/09 05:43:52;;;;;;;31.92;21.05;;;;;;;19.63;100.00;-18554.88;5031183;28;20103;-78
2023/09/09 05:46:18;;;;;;;30.38;21.40;;;;;;;19.70;100.00;-18556.94;5028186;28;20385;-77
2023/09/09 05:48:43;;;;;;;32.25;21.98;;;;;;;19.72;100.00;-18557.47;5010162;28;20040;-77
2023/09/09 05:51:09;;;;;;;28.25;21.92;;;;;;;19.66;100.00;-18555.84;5024874;28;20069;-76
2023/09/09 05:53:34;;;;;;;31.48;21.27;;;;;;;19.76;100.00;-18558.41;5027181;28;20509;-76
2023/09/09 05:56:00;;;;;;;29.50;22.42;;;;;;;19.84;100.00;-18560.75;5009529;28;20042;-76
2023/09/09 05:58:25;;;;;;;30.88;22.00;;;;;;;19.87;100.00;-18561.28;5026607;28;20037;-77
2023/09/09 06:00:50;;;;;;;31.05;23.02;;;;;;;19.91;100.00;-18562.50;5010795;28;20552;-77
2023/09/09 06:03:16;;;;;;;35.90;24.02;;;;;;;20.01;100.00;-18565.22;5023977;28;20037;-77
2023/09/09 06:05:41;;;;;;;29.35;22.60;;;;;;;20.05;100.00;-18566.31;5010150;28;20140;-76
2023/09/09 06:08:07;;;;;;;28.48;21.60;;;;;;;20.08;100.00;-18566.88;5010602;28;20025;-76
2023/09/09 06:10:32;;;;;;;31.25;24.15;;;;;;;20.21;100.00;-18570.53;5028267;28;20117;-78
2023/09/09 06:12:58;;;;;;;29.42;21.05;;;;;;;20.35;100.00;-18574.09;5026172;28;20106;-76
2023/09/09 06:15:23;;;;;;;28.50;20.73;;;;;;;20.60;100.00;-18580.88;5009046;28;20034;-77
2023/09/09 06:17:49;;;;;;;31.98;24.40;;;;;;;20.73;100.00;-18584.28;5027481;28;20068;-78
2023/09/09 06:20:14;;;;;;;33.83;25.00;;;;;;;20.93;100.00;-18589.72;5026973;28;20063;-78
2023/09/09 06:22:40;;;;;;;31.67;24.30;;;;;;;21.18;100.00;-18596.38;5009934;28;20103;-78
2023/09/09 06:25:06;;;;;;;36.67;24.67;;;;;;;21.24;100.00;-18597.88;5027228;28;20053;-77
2023/09/09 06:27:31;;;;;;;32.00;25.10;;;;;;;21.52;100.00;-18605.22;5024683;28;20049;-76
2023/09/09 06:29:56;;;;;;;33.03;25.65;;;;;;;21.84;100.00;-18613.94;5027211;28;20033;-78
2023/09/09 06:32:22;;;;;;;33.42;24.75;;;;;;;22.00;100.00;-18618.13;5024779;28;20103;-76
2023/09/09 06:34:47;;;;;;;30.65;24.42;;;;;;;22.04;100.00;-18619.22;5018282;28;20045;-77
2023/09/09 06:37:12;;;;;;;30.45;23.02;;;;;;;22.18;100.00;-18622.75;5026074;28;20049;-76
2023/09/09 06:39:38;;;;;;;31.52;21.83;;;;;;;22.32;100.00;-18626.44;5024452;28;20083;-76
2023/09/09 06:42:05;;;;;;;29.10;20.65;;;;;;;22.42;100.00;-18629.16;5022011;28;20045;-77
2023/09/09 06:44:30;;;;;;;31.77;22.23;;;;;;;22.46;100.00;-18630.22;5022910;28;20061;-77
2023/09/09 06:46:55;;;;;;;29.02;20.67;;;;;;;22.62;100.00;-18634.56;5020298;28;20472;-77
2023/09/09 06:49:21;;;;;;;28.45;20.55;;;;;;;22.88;100.00;-18641.38;5025085;28;20057;-76
2023/09/09 06:51:46;;;;;;;27.17;20.77;;;;;;;22.94;100.00;-18643.00;5008553;28;20037;-77
2023/09/09 06:54:12;;;;;;;24.58;18.98;;;;;;;23.07;100.00;-18646.38;5023155;28;20053;-77
2023/09/09 06:56:37;;;;;;;29.30;19.77;;;;;;;23.12;100.00;-18647.88;5008426;28;20120;-78
2023/09/09 06:59:03;;;;;;;26.85;19.38;;;;;;;23.26;100.00;-18651.41;5009448;28;20175;-79
2023/09/09 07:01:29;;;;;;;24.63;18.27;;;;;;;23.29;100.00;-18652.34;5026636;28;20619;-79
2023/09/09 07:03:54;;;;;;;24.10;18.98;;;;;;;23.45;100.00;-18656.41;5023562;28;20072;-79
2023/09/09 07:06:20;;;;;;;26.13;18.92;;;;;;;23.41;100.00;-18655.47;5021485;28;20382;-78
2023/09/09 07:08:47;;;;;;;25.50;19.30;;;;;;;23.48;100.00;-18657.38;5027079;28;20366;-80
2023/09/09 07:11:12;;;;;;;24.02;18.33;;;;;;;23.56;100.00;-18659.53;5007676;28;20043;-80
2023/09/09 07:13:38;;;;;;;27.13;19.15;;;;;;;23.74;100.00;-18664.28;5025221;28;20049;-77
2023/09/09 07:16:03;;;;;;;25.27;18.45;;;;;;;23.81;100.00;-18666.19;5026559;28;20041;-78
2023/09/09 07:18:29;;;;;;;25.98;18.75;;;;;;;24.04;100.00;-18672.28;5025990;28;20061;-76
2023/09/09 07:20:57;;;;;;;26.95;18.02;;;;;;;24.20;100.00;-18676.34;5026466;28;20064;-76
2023/09/09 07:23:23;;;;;;;26.67;18.65;;;;;;;24.21;100.00;-18676.75;5024640;28;20579;-76
2023/09/09 07:25:48;;;;;;;24.88;18.73;;;;;;;24.22;100.00;-18676.91;5027363;28;20045;-77
2023/09/09 07:28:14;;;;;;;27.10;19.50;;;;;;;24.31;100.00;-18679.34;5027658;28;20037;-78
2023/09/09 07:30:40;;;;;;;25.90;19.88;;;;;;;24.45;100.00;-18683.00;5025583;28;20048;-78
2023/09/09 07:33:05;;;;;;;24.42;19.42;;;;;;;24.54;100.00;-18685.56;5008866;28;20033;-78
2023/09/09 07:35:32;;;;;;;28.35;19.85;;;;;;;24.66;100.00;-18688.56;5026162;28;20416;-77
2023/09/09 07:37:57;;;;;;;27.75;20.13;;;;;;;24.80;100.00;-18692.22;5027194;28;20037;-78
2023/09/09 07:40:23;;;;;;;24.95;18.90;;;;;;;24.91;100.00;-18695.31;5025865;28;20040;-77
2023/09/09 07:42:50;;;;;;;29.55;20.48;;;;;;;25.04;100.00;-18698.72;5026661;28;20042;-78
2023/09/09 07:45:15;;;;;;;27.48;19.35;;;;;;;25.10;100.00;-18700.19;5020619;28;20041;-78
2023/09/09 07:47:41;;;;;;;29.80;20.67;;;;;;;25.10;100.00;-18700.19;5002017;28;20548;-76
2023/09/09 07:50:07;;;;;;;26.80;20.27;;;;;;;25.10;100.00;-18700.34;5025531;28;20072;-77
2023/09/09 07:52:32;;;;;;;30.38;19.42;;;;;;;25.17;100.00;-18702.22;5023228;28;20446;-78
2023/09/09 07:54:57;;;;;;;30.25;20.48;;;;;;;25.29;100.00;-18705.22;5005609;28;20497;-76
2023/09/09 07:57:23;;;;;;;25.80;19.17;;;;;;;25.40;100.00;-18708.19;5006981;28;20561;-77
2023/09/09 07:59:48;;;;;;;28.80;20.20;;;;;;;25.49;100.00;-18710.50;5019319;28;20096;-79
2023/09/09 08:02:14;;;;;;;28.55;19.23;;;;;;;25.49;100.00;-18710.63;5008691;28;20120;-77
2023/09/09 08:04:39;;;;;;;27.50;21.25;;;;;;;25.64;100.00;-18714.56;5020769;28;20546;-78
2023/09/09 08:07:05;;;;;;;26.98;20.52;;;;;;;25.83;100.00;-18719.69;5007234;28;20128;-79
2023/09/09 08:09:31;;;;;;;30.00;21.15;;;;;;;25.83;100.00;-18719.56;5022782;28;20102;-79
2023/09/09 08:11:56;;;;;;;28.60;20.80;;;;;;;25.88;100.00;-18721.03;5021684;28;20066;-82
2023/09/09 08:14:22;;;;;;;31.48;20.60;;;;;;;26.02;100.00;-18724.56;5022738;28;20045;-79
2023/09/09 08:16:47;;;;;;;27.75;18.38;;;;;;;26.01;100.00;-18724.28;5024298;28;20093;-77
2023/09/09 08:19:12;;;;;;;27.55;19.70;;;;;;;26.03;100.00;-18724.97;5007011;28;20042;-78
2023/09/09 08:21:38;;;;;;;28.02;19.40;;;;;;;26.23;100.00;-18730.25;5020039;28;20045;-78
2023/09/09 08:24:03;;;;;;;28.90;19.58;;;;;;;26.35;100.00;-18733.34;5025471;28;20536;-78
2023/09/09 08:26:29;;;;;;;26.15;18.05;;;;;;;26.49;100.00;-18737.13;5027554;28;20048;-77
2023/09/09 08:28:55;;;;;;;23.85;17.40;;;;;;;26.45;100.00;-18736.06;5027945;28;20053;-78
2023/09/09 08:31:21;;;;;;;24.65;17.58;;;;;;;26.51;100.00;-18737.69;5026764;28;20165;-78
2023/09/09 08:33:46;;;;;;;27.63;18.88;;;;;;;26.63;100.00;-18740.78;5008681;28;20064;-77
2023/09/09 08:36:12;;;;;;;27.33;18.77;;;;;;;26.87;100.00;-18747.13;5009377;28;20416;-78
2023/09/09 08:38:37;;;;;;;28.83;18.67;;;;;;;26.87;100.00;-18747.00;4983200;28;1098119;-77
2023/09/09 08:41:38;;;;;;;27.45;18.63;;;;;;;27.02;100.00;-18751.06;5021517;28;20509;-78
2023/09/09 08:44:22;;;;;;;27.92;18.73;;;;;;;27.00;100.00;-18750.66;5014248;28;20457;-78
2023/09/09 08:46:47;;;;;;;26.67;18.85;;;;;;;27.13;100.00;-18754.03;5033659;28;20103;-78
2023/09/09 08:49:16;;;;;;;25.88;18.95;;;;;;;27.20;100.00;-18755.78;5034069;28;20037;-79
2023/09/09 08:51:48;;;;;;;25.98;18.40;;;;;;;27.16;100.00;-18754.69;5031925;28;20050;-78
2023/09/09 08:54:15;;;;;;;28.30;19.00;;;;;;;27.23;100.00;-18756.72;5013361;28;20091;-77
2023/09/09 08:56:41;;;;;;;27.42;19.25;;;;;;;27.23;100.00;-18756.72;5030017;28;20073;-78
2023/09/09 08:59:08;;;;;;;28.00;18.83;;;;;;;27.22;100.00;-18756.47;5007627;28;20060;-78
2023/09/09 09:01:35;;;;;;;28.30;21.77;;;;;;;27.21;100.00;-18756.06;5030482;28;20442;-78
2023/09/09 09:04:01;;;;;;;26.75;20.45;;;;;;;27.36;100.00;-18760.09;5032087;28;20113;-78
2023/09/09 09:06:27;;;;;;;28.30;20.42;;;;;;;27.33;100.00;-18759.28;5007964;28;20108;-77
2023/09/09 09:08:52;;;;;;;28.77;20.42;;;;;;;27.31;100.00;-18758.63;5008893;28;20037;-77
2023/09/09 09:11:20;;;;;;;26.85;18.95;;;;;;;27.47;100.00;-18762.81;5013278;28;20813;-78
2023/09/09 09:13:47;;;;;;;22.98;18.25;;;;;;;27.85;100.00;-18772.94;5029616;28;21406;-77
2023/09/09 09:16:13;;;;;;;25.17;18.25;;;;;;;28.01;96.34;-18777.25;5027646;28;20033;-77
2023/09/09 09:18:38;;;;;;;24.50;17.20;;;;;;;27.97;97.79;-18776.16;5024286;28;20041;-78
2023/09/09 09:21:09;;;;;;;27.38;18.98;;;;;;;28.14;96.38;-18780.63;5028718;28;20050;-78
2023/09/09 09:23:44;;;;;;;27.63;19.55;;;;;;;28.13;98.39;-18780.34;5010339;28;20057;-77
2023/09/09 09:26:30;;;;;;;22.67;17.08;;;;;;;28.39;98.10;-18787.22;5029925;28;20049;-78
2023/09/09 09:28:56;;;;;;;26.35;18.88;;;;;;;28.22;97.25;-18782.78;5004686;28;20041;-78
2023/09/09 09:31:23;;;;;;;24.17;17.10;;;;;;;28.51;96.30;-18790.34;5028560;28;20045;-78
2023/09/09 09:33:52;;;;;;;28.20;17.98;;;;;;;28.68;95.08;-18794.78;5010366;28;20034;-78
2023/09/09 09:36:21;;;;;;;29.25;18.63;;;;;;;28.83;93.30;-18798.69;5029162;28;20037;-78
2023/09/09 09:38:49;;;;;;;28.42;18.13;;;;;;;29.09;94.78;-18805.69;5024171;28;20045;-78
2023/09/09 09:41:16;;;;;;;25.55;19.73;;;;;;;29.02;89.77;-18803.81;5030049;28;20401;-78
2023/09/09 09:43:41;;;;;;;25.60;19.38;;;;;;;29.09;92.37;-18805.69;5028233;28;20045;-77
2023/09/09 09:46:18;;;;;;;30.98;21.48;;;;;;;28.89;93.61;-18800.44;5009819;28;20444;-76
2023/09/09 09:48:44;;;;;;;26.95;19.58;;;;;;;28.90;93.66;-18800.72;5004051;28;20060;-77
2023/09/09 09:51:10;;;;;;;27.80;21.08;;;;;;;29.01;91.53;-18803.69;5016209;28;20037;-77
2023/09/09 09:53:47;;;;;;;31.33;22.95;;;;;;;29.04;92.04;-18804.34;5014479;28;20453;-77
2023/09/09 09:56:13;;;;;;;24.90;20.48;;;;;;;29.08;92.25;-18805.28;5024091;28;20505;-76
2023/09/09 09:58:39;;;;;;;30.55;23.08;;;;;;;29.10;93.11;-18805.84;5020458;28;20063;-77
2023/09/09 10:01:06;;;;;;;38.13;22.88;;;;;;;29.16;92.71;-18807.44;5017795;28;20034;-77
2023/09/09 10:03:43;;;;;;;30.05;23.02;;;;;;;29.28;91.65;-18810.69;5022044;28;20084;-77
2023/09/09 10:06:12;;;;;;;34.55;22.90;;;;;;;29.51;89.99;-18816.59;5023610;28;20041;-77
2023/09/09 10:08:45;;;;;;;36.65;24.05;;;;;;;29.62;87.63;-18819.56;5001615;28;20041;-76
2023/09/09 10:11:15;;;;;;;32.38;22.58;;;;;;;29.61;88.25;-18819.31;5025271;28;20118;-77
2023/09/09 10:14:03;;;;;;;35.85;26.33;;;;;;;29.65;84.67;-18820.53;5006607;28;20693;-77
2023/09/09 10:16:29;;;;;;;31.42;23.42;;;;;;;29.55;87.22;-18817.81;5006162;28;20042;-76
2023/09/09 10:18:56;;;;;;;33.58;23.85;;;;;;;29.66;86.98;-18820.78;5024605;28;20043;-77
2023/09/09 10:21:23;;;;;;;32.90;23.17;;;;;;;29.83;89.64;-18825.22;5022889;28;20033;-78
2023/09/09 10:23:49;;;;;;;35.85;22.80;;;;;;;29.79;87.36;-18824.03;5007141;28;20118;-77
2023/09/09 10:26:16;;;;;;;31.25;23.83;;;;;;;29.84;89.62;-18825.50;5026262;28;20050;-77
2023/09/09 10:28:43;;;;;;;33.55;24.08;;;;;;;29.90;89.32;-18827.13;5024266;28;20534;-77
2023/09/09 10:31:12;;;;;;;33.67;26.33;;;;;;;29.85;85.52;-18825.78;5025037;28;20048;-77
2023/09/09 10:33:41;;;;;;;35.38;23.63;;;;;;;29.96;88.36;-18828.59;5025087;28;20522;-79
2023/09/09 10:36:08;;;;;;;33.63;23.48;;;;;;;30.11;85.01;-18832.50;5026943;28;20124;-78
2023/09/09 10:38:33;;;;;;;31.88;22.63;;;;;;;30.12;87.56;-18832.75;5023696;28;20049;-77
2023/09/09 10:41:00;;;;;;;33.47;23.25;;;;;;;30.25;85.37;-18836.28;5025006;28;20045;-76
2023/09/09 10:43:25;;;;;;;31.10;21.20;;;;;;;30.28;84.87;-18836.94;5008096;28;20204;-77
2023/09/09 10:45:50;;;;;;;35.03;25.00;;;;;;;30.29;83.40;-18837.34;5004281;28;20124;-76
2023/09/09 10:48:21;;;;;;;34.33;22.92;;;;;;;30.35;83.17;-18838.97;5026442;28;20049;-77
2023/09/09 10:50:51;;;;;;;29.08;23.83;;;;;;;30.44;83.35;-18841.09;5005641;28;21383;-76
2023/09/09 10:53:27;;;;;;;30.45;23.15;;;;;;;30.53;80.84;-18843.66;5024741;28;20052;-76
2023/09/09 10:55:58;;;;;;;30.13;22.00;;;;;;;30.63;81.06;-18846.22;5005411;28;20055;-76
2023/09/09 10:58:38;;;;;;;28.50;21.38;;;;;;;30.75;80.67;-18849.44;5006679;28;20148;-76